Flight Track Log - Related Links

Times and Time Zones

All times are in EDT time to prevent confusion due to time zone crossing. See the SWA265 flight status page for this flight to view local times or setup timezone preferences in your user account.


Time Position Orientation Groundspeed Altitude Reporting Facility
EDT Latitude Longitude Course Direction KTS MPH feet Rate Location/Type
Mon 08:34:33 AM 35.0419 -106.5822 164° South 160 184 6,500  Level Albuquerque Center
Mon 08:35:15 AM 35.0078 -106.5703 164° South 204 235 7,500 2,188 Climbing Albuquerque Center
Mon 08:36:09 AM 34.9550 -106.5836 192° South 247 284 10,000 2,400 Climbing Albuquerque Center
Mon 08:37:10 AM 34.9706 -106.6692 283° West 270 311 12,100 2,975 Climbing Albuquerque Center
Mon 08:38:10 AM 35.0119 -106.7703 297° West 319 367 16,000 3,669 Climbing Albuquerque Center
Mon 08:39:11 AM 35.0564 -106.8772 297° West 350 403 19,500 3,620 Climbing Albuquerque Center
Mon 08:40:11 AM 35.0958 -107.0103 290° West 375 432 23,300 3,273 Climbing Albuquerque Center
Mon 08:41:12 AM 35.1089 -107.1358 277° West 387 445 26,100 2,678 Climbing Albuquerque Center
Mon 08:42:12 AM 35.1222 -107.2783 277° West 414 476 28,700 2,380 Climbing Albuquerque Center
Mon 08:43:13 AM 35.1375 -107.4203 278° West 419 482 30,900 2,281 Climbing Albuquerque Center
Mon 08:44:13 AM 35.1539 -107.5683 278° West 428 493 33,300 2,331 Climbing Albuquerque Center
Mon 08:45:14 AM 35.1667 -107.7072 276° West 430 495 35,600 2,182 Climbing Albuquerque Center
Mon 08:46:14 AM 35.1811 -107.8439 277° West 425 489 37,700 2,033 Climbing Albuquerque Center
Mon 08:47:15 AM 35.1972 -108.0014 277° West 419 482 39,700 1,140 Climbing Albuquerque Center
Mon 08:48:15 AM 35.2114 -108.1344 277° West 415 478 40,000 149 Climbing Albuquerque Center
Mon 08:49:16 AM 35.2253 -108.2675 277° West 413 475 40,000  Level Albuquerque Center
Mon 08:50:16 AM 35.2406 -108.4225 277° West 411 473 40,000  Level Albuquerque Center
Mon 08:51:17 AM 35.2522 -108.5547 276° West 408 470 40,000  Level Albuquerque Center
Mon 08:52:17 AM 35.2650 -108.6856 277° West 405 466 40,000  Level Albuquerque Center
Mon 08:53:18 AM 35.2769 -108.8164 276° West 404 465 40,000  Level Albuquerque Center
Mon 08:54:18 AM 35.2914 -108.9706 277° West 404 465 40,000  Level Albuquerque Center
Mon 08:55:19 AM 35.3044 -109.1017 277° West 404 465 40,000  Level Albuquerque Center
Mon 08:56:19 AM 35.3161 -109.2339 276° West 406 467 40,000  Level Albuquerque Center
Mon 08:57:20 AM 35.3300 -109.3883 276° West 406 467 40,000  Level Albuquerque Center
Mon 08:58:21 AM 35.3411 -109.5194 276° West 405 466 40,000  Level Albuquerque Center
Mon 08:59:21 AM 35.3519 -109.6511 276° West 404 465 40,000  Level Albuquerque Center
Mon 09:00:22 AM 35.3636 -109.7869 276° West 413 475 40,000  Level Albuquerque Center
Mon 09:01:22 AM 35.3769 -109.9414 276° West 410 472 40,000  Level Albuquerque Center
Mon 09:02:23 AM 35.3853 -110.0739 274° West 408 470 40,000  Level Albuquerque Center
Mon 09:03:23 AM 35.3956 -110.2061 275° West 408 470 40,000  Level Albuquerque Center
Mon 09:04:24 AM 35.4075 -110.3600 275° West 406 467 40,000  Level Albuquerque Center
Mon 09:05:24 AM 35.4186 -110.4933 276° West 410 472 40,000  Level Albuquerque Center
Mon 09:06:25 AM 35.4283 -110.6267 275° West 410 472 40,000  Level Albuquerque Center
Mon 09:07:26 AM 35.4414 -110.7822 276° West 409 471 40,000  Level Albuquerque Center
Mon 09:08:26 AM 35.4517 -110.9164 275° West 412 474 40,000  Level Albuquerque Center
Mon 09:09:27 AM 35.4619 -111.0503 275° West 413 475 40,000  Level Albuquerque Center
Mon 09:10:28 AM 35.4733 -111.2064 275° West 410 472 40,000 -843 Level Albuquerque Center
Mon 09:11:28 AM 35.4836 -111.3411 275° West 414 476 38,300 -2,083 Descending Albuquerque Center
Mon 09:12:29 AM 35.4942 -111.4703 276° West 412 474 35,800 -2,529 Descending Albuquerque Center
Mon 09:13:29 AM 35.5031 -111.6081 275° West 411 473 33,200 -2,430 Descending Albuquerque Center
Mon 09:14:30 AM 35.5128 -111.7464 275° West 410 472 30,900 -1,574 Descending Albuquerque Center
Mon 09:15:31 AM 35.5225 -111.8825 275° West 406 467 30,000 -446 Descending Albuquerque Center
Mon 09:16:31 AM 35.5319 -112.0158 275° West 399 459 30,000 -198 Level Albuquerque Center
Mon 09:17:32 AM 35.5403 -112.1486 274° West 395 455 29,600 -787 Descending Albuquerque Center
Mon 09:18:33 AM 35.5503 -112.3056 275° West 388 447 28,400 -1,426 Descending Albuquerque Center
Mon 09:19:34 AM 35.5586 -112.4347 275° West 384 442 26,700 -1,385 Descending Albuquerque Center
Mon 09:20:04 AM 35.5619 -112.4881 274° West 386 444 26,300 -1,000 Descending Los Angeles Center
Mon 09:21:04 AM 35.5717 -112.6322 275° West 379 436 25,200 -1,041 Descending Los Angeles Center
Mon 09:22:05 AM 35.5794 -112.7586 274° West 372 428 24,200 -934 Descending Los Angeles Center
Mon 09:23:06 AM 35.5875 -112.8797 275° West 361 415 23,300 -984 Descending Los Angeles Center
Mon 09:24:07 AM 35.5939 -113.0094 274° West 363 418 22,200 -934 Descending Los Angeles Center
Mon 09:25:08 AM 35.6000 -113.1058 274° West 360 414 21,400 -934 Descending Los Angeles Center
Mon 09:26:09 AM 35.6078 -113.2489 274° West 352 405 20,300 -689 Descending Los Angeles Center
Mon 09:27:10 AM 35.6150 -113.3656 274° West 360 414 20,000 -148 Descending Los Angeles Center
Mon 09:28:11 AM 35.6225 -113.4992 274° West 389 448 20,000  Level Los Angeles Center
Mon 09:29:12 AM 35.6367 -113.6319 278° West 395 455 20,000  Level Los Angeles Center
Mon 09:30:13 AM 35.6558 -113.7619 280° West 391 450 20,000 -443 Level Los Angeles Center
Mon 09:31:14 AM 35.6781 -113.9183 280° West 390 449 19,100 -1,131 Descending Los Angeles Center
Mon 09:32:15 AM 35.6953 -114.0478 279° West 387 445 17,700 -2,049 Descending Los Angeles Center
Mon 09:33:17 AM 35.7133 -114.1733 280° West 377 434 14,900 -2,564 Descending Los Angeles Center
Mon 09:34:12 AM 35.7322 -114.2894 281° West 374 430 12,700 -1,426 Descending Los Angeles Center
Mon 09:35:19 AM 35.7708 -114.3975 294° West 317 365 12,000 -1,082 Descending Los Angeles Center
Mon 09:36:14 AM 35.8356 -114.4508 326° Northwest 304 350 10,500 -1,541 Descending Los Angeles Center
Mon 09:36:33 AM 35.8494 -114.4725 308° West 303 349 10,100 -1,125 Descending Los Angeles Center
Mon 09:37:34 AM 35.9058 -114.5439 314° West 292 336 9,000 -1,000 Descending Los Angeles Center
Mon 09:38:15 AM 35.9456 -114.5944 314° West 289 333 8,400 -885 Descending Los Angeles Center
Mon 09:38:35 AM 35.9603 -114.6142 313° West 285 328 8,100 -273 Descending Los Angeles Center
Mon 09:39:21 AM 36.0089 -114.6744 315° West 280 322 8,100  Level Los Angeles Center
Mon 09:39:37 AM 36.0153 -114.6819 316° Northwest 280 322 8,100 -98 Level Los Angeles Center
Mon 09:40:22 AM 36.0581 -114.7403 312° West 263 303 8,000 -98 Descending Los Angeles Center
Mon 09:40:38 AM 36.0675 -114.7489 324° Northwest 274 315 8,000 -873 Level Los Angeles Center
Mon 09:41:17 AM 36.0764 -114.8142 280° West 258 297 7,200 -1,180 Descending Los Angeles Center
Mon 09:41:39 AM 36.0775 -114.8297 275° West 259 298 6,800 -1,500 Descending Los Angeles Center
Mon 09:42:29 AM 36.0769 -114.9150 270° West 259 298 5,400 -1,282 Descending Los Angeles Center
Mon 09:43:36 AM 36.0764 -115.0006 270° West 201 231 4,300 -1,138 Descending Los Angeles Center
Mon 09:44:25 AM 36.0750 -115.0436 268° West 166 191 3,200 -1,147 Descending Los Angeles Center
Mon 09:44:44 AM 36.0767 -115.0600 277° West 181 208 3,000 -600 Descending Los Angeles Center
Mon 09:45:25 AM 36.0767 -115.0908 270° West 131 151 2,600 -590 Descending Los Angeles Center
Mon 09:45:45 AM 36.0764 -115.1058 269° West 154 177 2,400 -600 Descending Los Angeles Center
Mon 09:47:00 AM 36.0667 -115.1500 270° West  Level FlightAware Approximate
Mon 09:54:00 AM 36.0801 -115.1523 270° West  Level Estimated

Login

Don't have an account? Register now (free) for customized features, flight alerts, and more!